Time;durP1;ratioP1;P1;durP2;ratioP2;P2;SDS_P1;SDS_P2;PMS_P1;PMS_P2;Temp;Humidity;BMP_temperature;BMP_pressure;BME280_temperature;BME280_humidity;BME280_pressure;Samples;Min_cycle;Max_cycle;Signal;HPM_P1;HPM_P2
2023/10/29 00:00:56;;;;;;;22.00;8.55;;;8.70;99.90;;;;;;5080916;28;20054;-84
2023/10/29 00:03:22;;;;;;;21.00;7.97;;;8.80;99.90;;;;;;5096606;28;20031;-84
2023/10/29 00:05:48;;;;;;;19.90;8.43;;;8.70;99.90;;;;;;5096107;28;20031;-84
2023/10/29 00:08:13;;;;;;;17.35;7.80;;;8.80;99.90;;;;;;5117523;27;20028;-84
2023/10/29 00:10:39;;;;;;;23.73;8.32;;;8.80;99.90;;;;;;5057104;28;20041;-84
2023/10/29 00:13:17;;;;;;;19.85;8.63;;;8.80;99.90;;;;;;5110983;27;20467;-84
2023/10/29 00:15:43;;;;;;;18.85;7.45;;;8.80;99.90;;;;;;5115842;27;20024;-84
2023/10/29 00:18:12;;;;;;;15.52;8.25;;;8.80;99.90;;;;;;5081912;28;20085;-84
2023/10/29 00:20:38;;;;;;;19.48;7.72;;;8.80;99.90;;;;;;5064231;28;20059;-84
2023/10/29 00:23:04;;;;;;;14.30;7.55;;;8.80;99.90;;;;;;5061874;28;20016;-84
2023/10/29 00:25:30;;;;;;;19.25;7.15;;;8.80;99.90;;;;;;5077002;28;20136;-84
2023/10/29 00:27:55;;;;;;;19.98;7.22;;;8.80;99.90;;;;;;5070687;28;20024;-84
2023/10/29 00:30:21;;;;;;;17.77;7.30;;;8.80;99.90;;;;;;5065378;28;20024;-84
2023/10/29 00:32:46;;;;;;;16.67;6.95;;;8.90;99.90;;;;;;5067729;28;20395;-84
2023/10/29 00:35:13;;;;;;;12.18;6.93;;;8.90;99.90;;;;;;5059350;28;20719;-84
2023/10/29 00:37:38;;;;;;;12.70;7.18;;;8.90;99.90;;;;;;5111442;28;20471;-84
2023/10/29 00:40:05;;;;;;;16.17;6.53;;;8.90;99.90;;;;;;5065216;28;20161;-85
2023/10/29 00:42:30;;;;;;;12.82;5.93;;;8.80;99.90;;;;;;5111863;28;20035;-84
2023/10/29 00:44:56;;;;;;;14.73;6.93;;;8.80;99.90;;;;;;5065579;28;20036;-83
2023/10/29 00:47:22;;;;;;;13.52;7.22;;;8.80;99.90;;;;;;5073193;28;20106;-84
2023/10/29 00:49:49;;;;;;;18.23;6.90;;;8.80;99.90;;;;;;5067610;28;20386;-84
2023/10/29 00:52:15;;;;;;;11.05;6.40;;;8.70;99.90;;;;;;5062712;28;20130;-84
2023/10/29 00:54:42;;;;;;;10.30;6.32;;;8.70;99.90;;;;;;5077536;28;20020;-84
2023/10/29 00:57:08;;;;;;;11.30;6.40;;;8.70;99.90;;;;;;5074218;28;20078;-84
2023/10/29 00:59:34;;;;;;;18.85;6.78;;;8.70;99.90;;;;;;5076693;28;20023;-84
2023/10/29 01:02:01;;;;;;;13.48;7.40;;;8.70;99.90;;;;;;5107440;28;20035;-83
2023/10/29 01:04:27;;;;;;;21.13;6.97;;;8.70;99.90;;;;;;5065759;28;20024;-84
2023/10/29 01:06:53;;;;;;;16.13;6.65;;;8.70;99.90;;;;;;5058060;28;20031;-84
2023/10/29 01:09:58;;;;;;;14.80;7.00;;;8.70;99.90;;;;;;5075827;28;20043;-84
2023/10/29 01:12:26;;;;;;;15.80;7.00;;;8.70;99.90;;;;;;5097867;28;20032;-85
2023/10/29 01:14:52;;;;;;;12.95;7.25;;;8.80;99.90;;;;;;5081919;28;20468;-84
2023/10/29 01:17:19;;;;;;;11.50;6.82;;;8.80;99.90;;;;;;5082359;28;20034;-84
2023/10/29 01:19:45;;;;;;;14.45;7.18;;;8.80;99.90;;;;;;5078607;28;20042;-84
2023/10/29 01:22:11;;;;;;;13.95;6.63;;;8.80;99.90;;;;;;5096215;28;20472;-84
2023/10/29 01:24:38;;;;;;;17.58;7.28;;;8.80;99.90;;;;;;5096842;28;20864;-84
2023/10/29 01:27:04;;;;;;;10.23;6.25;;;8.80;99.90;;;;;;5104857;28;20032;-84
2023/10/29 01:29:30;;;;;;;13.52;6.50;;;8.80;99.90;;;;;;5074565;28;20027;-84
2023/10/29 01:31:56;;;;;;;9.15;5.57;;;8.90;99.90;;;;;;5102612;28;20036;-84
2023/10/29 01:34:21;;;;;;;17.98;7.50;;;8.90;99.90;;;;;;5082264;28;20431;-84
2023/10/29 01:36:47;;;;;;;11.95;6.28;;;8.90;99.90;;;;;;5082587;28;20016;-84
2023/10/29 01:39:13;;;;;;;20.40;6.07;;;8.90;99.90;;;;;;5078240;28;20111;-84
2023/10/29 01:41:39;;;;;;;20.45;6.13;;;8.90;99.90;;;;;;5082463;28;20426;-84
2023/10/29 01:44:05;;;;;;;15.57;5.88;;;8.90;99.90;;;;;;5107379;28;20032;-84
2023/10/29 01:46:31;;;;;;;13.82;5.60;;;8.90;99.90;;;;;;5067568;28;20083;-84
2023/10/29 01:48:56;;;;;;;11.75;4.95;;;8.90;99.90;;;;;;5085449;28;20036;-84
2023/10/29 01:51:22;;;;;;;11.73;4.90;;;8.90;99.90;;;;;;5085479;28;20027;-84
2023/10/29 01:53:48;;;;;;;14.68;4.90;;;8.90;99.90;;;;;;5112280;27;20139;-84
2023/10/29 01:56:13;;;;;;;14.18;5.03;;;8.90;99.90;;;;;;5111753;28;20031;-84
2023/10/29 01:58:39;;;;;;;14.15;5.85;;;8.90;99.90;;;;;;5114764;27;20024;-84
2023/10/29 02:01:10;;;;;;;7.72;4.82;;;8.90;99.90;;;;;;5082225;28;20107;-84
2023/10/29 02:03:35;;;;;;;12.07;5.53;;;8.90;99.90;;;;;;5079811;28;20478;-84
2023/10/29 02:06:01;;;;;;;10.75;5.03;;;8.90;99.90;;;;;;5100993;28;20038;-84
2023/10/29 02:08:28;;;;;;;11.93;4.90;;;8.90;99.90;;;;;;5081104;28;20063;-85
2023/10/29 02:10:54;;;;;;;9.65;4.85;;;8.90;99.90;;;;;;5085930;28;20039;-84
2023/10/29 02:13:19;;;;;;;8.88;4.43;;;8.90;99.90;;;;;;5082258;28;20394;-84
2023/10/29 02:15:45;;;;;;;11.35;5.22;;;8.90;99.90;;;;;;5096915;28;20089;-85
2023/10/29 02:18:11;;;;;;;10.40;4.95;;;8.90;99.90;;;;;;5083444;28;20402;-84
2023/10/29 02:20:37;;;;;;;13.85;5.30;;;8.90;99.90;;;;;;5080939;28;20035;-85
2023/10/29 02:23:03;;;;;;;12.63;4.78;;;9.00;99.90;;;;;;5083918;28;20080;-84
2023/10/29 02:25:29;;;;;;;11.30;4.85;;;8.90;99.90;;;;;;5083968;28;20078;-85
2023/10/29 02:27:54;;;;;;;10.02;3.75;;;9.00;99.90;;;;;;5076582;28;20398;-84
2023/10/29 02:30:20;;;;;;;7.85;4.03;;;9.00;99.90;;;;;;5085423;28;20069;-84
2023/10/29 02:32:49;;;;;;;15.07;4.72;;;9.00;99.90;;;;;;5095203;28;20028;-85
2023/10/29 02:35:14;;;;;;;10.40;4.85;;;9.00;99.90;;;;;;5084322;28;20649;-84
2023/10/29 02:38:04;;;;;;;10.88;4.22;;;9.00;99.90;;;;;;5096488;28;20020;-85
2023/10/29 02:40:30;;;;;;;9.68;3.83;;;9.00;99.90;;;;;;5106144;28;20078;-84
2023/10/29 02:42:55;;;;;;;7.18;3.50;;;9.10;99.90;;;;;;5082905;28;20035;-84
2023/10/29 02:45:36;;;;;;;12.88;4.13;;;9.10;99.90;;;;;;5117141;27;20036;-85
2023/10/29 02:48:02;;;;;;;10.57;4.43;;;9.10;99.90;;;;;;5100256;28;20058;-85
2023/10/29 02:50:28;;;;;;;6.72;3.55;;;9.10;99.90;;;;;;5079257;28;20032;-84
2023/10/29 02:52:55;;;;;;;8.95;4.20;;;9.10;99.90;;;;;;5082512;28;20475;-84
2023/10/29 02:55:34;;;;;;;5.95;3.50;;;9.10;99.90;;;;;;5091654;28;20098;-85
2023/10/29 02:58:01;;;;;;;9.10;3.85;;;9.10;99.90;;;;;;5111657;27;20036;-85
2023/10/29 03:00:28;;;;;;;8.35;3.72;;;9.20;99.90;;;;;;5065972;28;20122;-84
2023/10/29 03:03:15;;;;;;;8.45;3.80;;;9.20;99.90;;;;;;5092831;28;20582;-84
2023/10/29 03:05:41;;;;;;;9.30;3.80;;;9.20;99.90;;;;;;5062430;28;20028;-84
2023/10/29 03:08:06;;;;;;;5.53;3.58;;;9.20;99.90;;;;;;5060985;28;20043;-85
2023/10/29 03:10:32;;;;;;;14.43;3.95;;;9.20;99.90;;;;;;5103619;28;20024;-84
2023/10/29 03:12:58;;;;;;;8.43;3.60;;;9.20;99.90;;;;;;5071479;28;20028;-85
2023/10/29 03:15:25;;;;;;;7.82;3.63;;;9.20;99.90;;;;;;5061150;28;20021;-85
2023/10/29 03:17:50;;;;;;;5.72;3.20;;;9.20;99.90;;;;;;5096679;28;20056;-85
2023/10/29 03:20:16;;;;;;;10.27;3.40;;;9.10;99.90;;;;;;5067298;28;20133;-85
2023/10/29 03:22:42;;;;;;;10.45;3.67;;;9.10;99.90;;;;;;5068889;28;20028;-85
2023/10/29 03:25:08;;;;;;;11.90;3.85;;;9.10;99.90;;;;;;5063478;28;20031;-85
2023/10/29 03:27:34;;;;;;;6.03;3.67;;;9.10;99.90;;;;;;5063219;28;20036;-85
2023/10/29 03:30:00;;;;;;;9.63;3.70;;;9.10;99.90;;;;;;5066106;28;20054;-85
2023/10/29 03:32:26;;;;;;;6.30;3.22;;;9.00;99.90;;;;;;5116375;27;20527;-85
2023/10/29 03:34:51;;;;;;;7.82;3.28;;;9.00;99.90;;;;;;5081811;28;20386;-85
2023/10/29 03:37:18;;;;;;;11.07;3.38;;;9.10;99.90;;;;;;5074705;28;20714;-85
2023/10/29 03:39:44;;;;;;;4.25;2.72;;;9.00;99.90;;;;;;5117891;27;20060;-85
2023/10/29 03:42:10;;;;;;;11.88;3.20;;;9.10;99.90;;;;;;5080432;28;20058;-85
2023/10/29 03:44:36;;;;;;;7.50;3.55;;;9.20;99.90;;;;;;5110020;28;20024;-85
2023/10/29 03:47:01;;;;;;;4.38;2.72;;;9.20;99.90;;;;;;5081175;28;20036;-85
2023/10/29 03:49:27;;;;;;;10.18;2.50;;;9.20;99.90;;;;;;5110384;28;20059;-85
2023/10/29 03:51:53;;;;;;;8.18;2.60;;;9.20;99.90;;;;;;5083546;28;20023;-85
2023/10/29 03:54:19;;;;;;;8.63;3.13;;;9.20;99.90;;;;;;5105590;28;20026;-85
2023/10/29 03:56:44;;;;;;;10.50;3.10;;;9.10;99.90;;;;;;5075467;28;20352;-85
2023/10/29 03:59:10;;;;;;;6.43;2.78;;;9.10;99.90;;;;;;5081701;28;20027;-85
2023/10/29 04:01:36;;;;;;;8.85;2.45;;;9.00;99.90;;;;;;5063550;28;20147;-85
2023/10/29 04:04:03;;;;;;;5.43;2.60;;;9.00;99.90;;;;;;5082909;28;20035;-85
2023/10/29 04:06:30;;;;;;;4.18;2.78;;;9.00;99.90;;;;;;5065469;28;20031;-85
2023/10/29 04:08:56;;;;;;;2.55;1.98;;;8.90;99.90;;;;;;5081928;28;20150;-85
2023/10/29 04:11:22;;;;;;;3.47;2.28;;;8.90;99.90;;;;;;5079151;28;20028;-85
2023/10/29 04:13:47;;;;;;;4.25;2.47;;;8.90;99.90;;;;;;5093818;28;20023;-85
2023/10/29 04:16:13;;;;;;;6.00;2.45;;;8.80;99.90;;;;;;5114158;27;20089;-85
2023/10/29 04:18:39;;;;;;;7.03;2.88;;;8.80;99.90;;;;;;5092359;28;20028;-85
2023/10/29 04:21:07;;;;;;;5.80;2.20;;;8.80;99.90;;;;;;5098200;28;20520;-85
2023/10/29 04:23:33;;;;;;;6.25;2.38;;;8.90;99.90;;;;;;5077831;28;20038;-84
2023/10/29 04:25:59;;;;;;;4.65;2.08;;;9.00;99.90;;;;;;5081905;28;20474;-85
2023/10/29 04:28:25;;;;;;;9.35;2.05;;;9.00;99.90;;;;;;5078695;28;20039;-85
2023/10/29 04:30:53;;;;;;;7.60;2.13;;;9.00;99.90;;;;;;5067277;28;20053;-85
2023/10/29 04:33:22;;;;;;;5.78;1.90;;;9.10;99.90;;;;;;5079883;28;20081;-85
2023/10/29 04:35:48;;;;;;;4.15;2.10;;;9.20;99.90;;;;;;5056796;28;20035;-85
2023/10/29 04:38:14;;;;;;;9.43;2.22;;;9.30;99.90;;;;;;5081066;28;20019;-85
2023/10/29 04:40:39;;;;;;;4.60;2.08;;;9.50;99.90;;;;;;5113865;28;20383;-85
2023/10/29 04:43:05;;;;;;;4.07;1.73;;;9.60;99.90;;;;;;5079792;28;20024;-85
2023/10/29 04:45:31;;;;;;;2.58;1.40;;;9.60;99.90;;;;;;5076981;28;20024;-85
2023/10/29 04:47:56;;;;;;;4.30;1.75;;;9.60;99.90;;;;;;5081825;28;20046;-85
2023/10/29 04:50:22;;;;;;;6.25;2.05;;;9.70;99.90;;;;;;5078600;28;20073;-85
2023/10/29 04:52:48;;;;;;;2.42;1.63;;;9.70;99.90;;;;;;5083302;28;20032;-85
2023/10/29 04:55:13;;;;;;;3.38;1.95;;;9.70;99.90;;;;;;5097416;28;20481;-85
2023/10/29 04:57:39;;;;;;;4.70;1.85;;;9.70;99.90;;;;;;5114094;28;20027;-85
2023/10/29 05:00:06;;;;;;;4.45;1.90;;;9.80;99.90;;;;;;5084898;28;20027;-85
2023/10/29 05:02:31;;;;;;;4.30;1.63;;;9.80;99.90;;;;;;5079855;28;20028;-85
2023/10/29 05:04:57;;;;;;;2.95;1.70;;;9.70;99.90;;;;;;5086081;28;20833;-85
2023/10/29 05:07:23;;;;;;;5.32;2.08;;;9.60;99.90;;;;;;5083607;28;20042;-85
2023/10/29 05:09:49;;;;;;;3.28;1.92;;;9.50;99.90;;;;;;5114378;27;20058;-85
2023/10/29 05:12:15;;;;;;;3.28;1.80;;;9.50;99.90;;;;;;5085090;28;20028;-85
2023/10/29 05:14:40;;;;;;;3.83;2.10;;;9.40;99.90;;;;;;5084211;28;20054;-85
2023/10/29 05:17:06;;;;;;;6.03;1.85;;;9.40;99.90;;;;;;5117061;27;20390;-84
2023/10/29 05:19:32;;;;;;;4.00;1.60;;;9.40;99.90;;;;;;5115211;27;20024;-85
2023/10/29 05:21:58;;;;;;;3.90;1.70;;;9.40;99.90;;;;;;5085478;28;20832;-85
2023/10/29 05:24:23;;;;;;;3.28;1.65;;;9.40;99.90;;;;;;5106034;28;20382;-85
2023/10/29 05:26:49;;;;;;;5.57;1.95;;;9.40;99.90;;;;;;5085630;28;20470;-85
2023/10/29 05:29:16;;;;;;;3.45;1.30;;;9.50;99.90;;;;;;5083351;28;20031;-85
2023/10/29 05:31:42;;;;;;;3.78;1.73;;;9.50;99.90;;;;;;5081544;28;20098;-85
2023/10/29 05:34:07;;;;;;;3.17;1.50;;;9.50;99.90;;;;;;5084632;28;20063;-85
2023/10/29 05:36:33;;;;;;;2.72;1.48;;;9.50;99.90;;;;;;5082965;28;20039;-86
2023/10/29 05:38:59;;;;;;;3.88;1.60;;;9.50;99.90;;;;;;5091746;28;20026;-85
2023/10/29 05:41:49;;;;;;;6.25;1.50;;;9.50;99.90;;;;;;5084121;28;20479;-86
2023/10/29 05:44:16;;;;;;;;;;;9.50;99.90;;;;;;5055151;28;20079;-86
2023/10/29 05:46:41;;;;;;;9.20;1.75;;;9.50;99.90;;;;;;5122249;27;19935;-85
2023/10/29 05:49:07;;;;;;;2.17;1.50;;;9.60;99.90;;;;;;5063002;28;20040;-85
2023/10/29 05:51:33;;;;;;;10.32;1.80;;;9.60;99.90;;;;;;5099885;28;20032;-86
2023/10/29 05:53:58;;;;;;;7.07;1.90;;;9.60;99.90;;;;;;5080155;28;20114;-85
2023/10/29 05:56:24;;;;;;;5.30;1.63;;;9.60;99.90;;;;;;5068726;28;20024;-85
2023/10/29 05:58:49;;;;;;;7.13;2.35;;;9.60;99.90;;;;;;5081776;28;20489;-86
2023/10/29 06:01:15;;;;;;;5.80;2.72;;;9.60;99.90;;;;;;5090124;28;20067;-86
2023/10/29 06:03:41;;;;;;;3.78;2.35;;;9.50;99.90;;;;;;5100125;28;20016;-86
2023/10/29 06:06:06;;;;;;;2.63;1.90;;;9.50;99.90;;;;;;5065437;28;20480;-85
2023/10/29 06:08:32;;;;;;;3.83;1.92;;;9.50;99.90;;;;;;5068602;28;20020;-85
2023/10/29 06:10:59;;;;;;;6.97;2.63;;;9.50;99.90;;;;;;5109441;28;20386;-85
2023/10/29 06:13:25;;;;;;;5.93;2.72;;;9.50;99.90;;;;;;5077109;28;20450;-85
2023/10/29 06:15:51;;;;;;;5.97;3.40;;;9.50;99.90;;;;;;5070161;28;20056;-85
2023/10/29 06:18:16;;;;;;;10.95;2.97;;;9.60;99.90;;;;;;5061808;28;20055;-85
2023/10/29 06:20:43;;;;;;;6.25;2.50;;;9.60;99.90;;;;;;5071097;28;20019;-85
2023/10/29 06:23:09;;;;;;;4.00;2.10;;;9.50;99.90;;;;;;5062996;28;20039;-85
2023/10/29 06:25:35;;;;;;;3.00;2.00;;;9.40;99.90;;;;;;5081893;28;20020;-85
2023/10/29 06:28:19;;;;;;;6.78;1.85;;;9.40;99.90;;;;;;5062838;28;20035;-85
2023/10/29 06:30:44;;;;;;;5.57;2.38;;;9.30;99.90;;;;;;5072942;28;20028;-85
2023/10/29 06:33:10;;;;;;;4.47;2.00;;;9.30;99.90;;;;;;5065211;28;20033;-85
2023/10/29 06:35:36;;;;;;;15.32;2.63;;;9.30;99.90;;;;;;5067774;28;20020;-85
2023/10/29 06:38:32;;;;;;;6.65;2.13;;;9.30;99.90;;;;;;5078705;28;20031;-85
2023/10/29 06:40:58;;;;;;;4.35;2.00;;;9.30;99.90;;;;;;5082192;28;20054;-85
2023/10/29 06:43:24;;;;;;;5.95;2.10;;;9.30;99.90;;;;;;5085572;27;20024;-85
2023/10/29 06:45:50;;;;;;;5.07;2.40;;;9.40;99.90;;;;;;5079654;28;20115;-85
2023/10/29 06:48:16;;;;;;;5.22;2.50;;;9.40;99.90;;;;;;5069123;28;20032;-85
2023/10/29 06:50:43;;;;;;;7.93;3.05;;;9.50;99.90;;;;;;5113465;27;20391;-85
2023/10/29 06:53:09;;;;;;;11.23;5.85;;;9.40;99.90;;;;;;5115854;27;20024;-85
2023/10/29 06:55:40;;;;;;;10.25;6.22;;;9.40;99.90;;;;;;5121608;27;20020;-85
2023/10/29 06:58:05;;;;;;;15.77;9.02;;;9.40;99.90;;;;;;5077222;28;20490;-85
2023/10/29 07:00:31;;;;;;;15.38;8.40;;;9.40;99.90;;;;;;5077015;28;20012;-85
2023/10/29 07:02:57;;;;;;;10.50;7.20;;;9.30;99.90;;;;;;5094784;28;20025;-85
2023/10/29 07:05:23;;;;;;;10.80;7.30;;;9.30;99.90;;;;;;5081404;28;20371;-84
2023/10/29 07:07:48;;;;;;;12.77;7.07;;;9.30;99.90;;;;;;5067998;28;20036;-85
2023/10/29 07:10:14;;;;;;;13.68;7.10;;;9.30;99.90;;;;;;5078642;28;20043;-85
2023/10/29 07:12:40;;;;;;;30.45;17.10;;;9.20;99.90;;;;;;5100583;28;20034;-85
2023/10/29 07:15:08;;;;;;;20.65;12.32;;;9.20;99.90;;;;;;5076494;28;20447;-86
2023/10/29 07:17:34;;;;;;;14.50;7.60;;;9.20;99.90;;;;;;5082226;28;20122;-86
2023/10/29 07:20:00;;;;;;;17.23;8.55;;;9.20;99.90;;;;;;5062518;28;20757;-85
2023/10/29 07:22:25;;;;;;;13.80;6.40;;;9.10;99.90;;;;;;5066189;28;20028;-84
2023/10/29 07:24:51;;;;;;;9.32;5.60;;;9.10;99.90;;;;;;5067997;28;20047;-85
2023/10/29 07:27:17;;;;;;;12.27;6.28;;;9.10;99.90;;;;;;5077318;28;20118;-84
2023/10/29 07:29:42;;;;;;;6.18;3.53;;;9.10;99.90;;;;;;5068994;28;20036;-85
2023/10/29 07:32:08;;;;;;;10.05;5.55;;;9.10;99.90;;;;;;5113790;27;20036;-84
2023/10/29 07:34:34;;;;;;;12.00;5.70;;;9.10;99.90;;;;;;5073008;28;20027;-85
2023/10/29 07:37:00;;;;;;;5.93;3.63;;;9.10;99.90;;;;;;5082346;28;20394;-84
2023/10/29 07:39:25;;;;;;;7.45;4.80;;;9.10;99.90;;;;;;5099767;28;20077;-84
2023/10/29 07:41:51;;;;;;;15.10;5.00;;;9.10;99.90;;;;;;5063162;28;20039;-84
2023/10/29 07:44:17;;;;;;;11.40;5.68;;;9.20;99.90;;;;;;5117920;27;20024;-84
2023/10/29 07:46:43;;;;;;;13.75;8.05;;;9.20;99.90;;;;;;5066967;28;20428;-84
2023/10/29 07:49:09;;;;;;;15.93;9.77;;;9.30;99.90;;;;;;5097512;28;20035;-84
2023/10/29 07:51:35;;;;;;;29.63;13.18;;;9.40;99.90;;;;;;5105034;27;20032;-84
2023/10/29 07:54:01;;;;;;;26.65;14.15;;;9.50;99.90;;;;;;5077796;28;20047;-84
2023/10/29 07:56:27;;;;;;;29.17;11.20;;;9.50;99.90;;;;;;5076257;28;20036;-84
2023/10/29 07:58:52;;;;;;;11.13;4.82;;;9.50;99.90;;;;;;5074787;28;20020;-84
2023/10/29 08:01:18;;;;;;;16.15;8.65;;;9.50;99.90;;;;;;5084338;28;20115;-84
2023/10/29 08:03:45;;;;;;;27.65;13.70;;;9.50;99.90;;;;;;5110662;27;20032;-84
2023/10/29 08:06:12;;;;;;;19.75;9.63;;;9.60;99.90;;;;;;5082063;28;20640;-84
2023/10/29 08:08:38;;;;;;;10.90;5.15;;;9.60;99.90;;;;;;5114644;27;20115;-85
2023/10/29 08:11:16;;;;;;;13.80;5.78;;;9.70;99.90;;;;;;5086677;28;20047;-85
2023/10/29 08:13:43;;;;;;;21.15;6.80;;;9.70;99.90;;;;;;5075870;28;20073;-84
2023/10/29 08:16:09;;;;;;;12.50;6.97;;;9.80;99.90;;;;;;5115628;27;20056;-84
2023/10/29 08:18:34;;;;;;;11.15;6.20;;;9.90;99.90;;;;;;5101571;28;20064;-85
2023/10/29 08:21:00;;;;;;;8.52;5.95;;;9.90;99.90;;;;;;5075217;28;20150;-84
2023/10/29 08:23:26;;;;;;;8.38;4.20;;;10.00;99.90;;;;;;5073543;28;20028;-84
2023/10/29 08:25:52;;;;;;;13.45;4.80;;;10.10;99.90;;;;;;5082072;28;20043;-84
2023/10/29 08:28:19;;;;;;;6.80;3.83;;;10.00;99.90;;;;;;5059180;28;20514;-84
2023/10/29 08:30:47;;;;;;;6.45;3.25;;;10.00;99.90;;;;;;5115153;27;20036;-84
2023/10/29 08:33:13;;;;;;;8.95;3.25;;;10.00;99.90;;;;;;5066138;28;20030;-84
2023/10/29 08:35:48;;;;;;;5.82;2.88;;;10.00;99.90;;;;;;5103472;28;20115;-84
2023/10/29 08:38:14;;;;;;;6.38;3.00;;;10.00;99.90;;;;;;5072837;28;20475;-84
2023/10/29 08:40:40;;;;;;;8.68;3.28;;;10.00;99.90;;;;;;5062484;28;20031;-84
2023/10/29 08:43:06;;;;;;;7.85;3.08;;;10.00;99.90;;;;;;5086609;28;20107;-84
2023/10/29 08:45:32;;;;;;;5.60;3.80;;;10.00;99.90;;;;;;5067361;28;20617;-84
2023/10/29 08:47:57;;;;;;;7.57;3.20;;;10.10;99.90;;;;;;5083688;28;20036;-85
2023/10/29 08:50:23;;;;;;;5.15;2.58;;;10.00;99.90;;;;;;5078629;28;20084;-85
2023/10/29 08:52:49;;;;;;;4.00;2.55;;;10.00;99.90;;;;;;5095330;28;20074;-85
2023/10/29 08:55:15;;;;;;;9.63;2.90;;;10.00;99.90;;;;;;5066002;28;20036;-85
2023/10/29 08:57:41;;;;;;;6.07;2.75;;;9.90;99.90;;;;;;5083962;28;20394;-85
2023/10/29 09:00:07;;;;;;;4.43;2.50;;;9.90;99.90;;;;;;5064086;28;20062;-85
2023/10/29 09:02:33;;;;;;;8.63;3.08;;;9.90;99.90;;;;;;5064971;28;20036;-84
2023/10/29 09:04:58;;;;;;;5.95;2.97;;;9.90;99.90;;;;;;5105063;28;20028;-85
2023/10/29 09:07:25;;;;;;;5.65;2.50;;;9.90;99.90;;;;;;5082697;28;20024;-85
2023/10/29 09:09:52;;;;;;;6.78;2.90;;;9.90;99.90;;;;;;5067067;28;20020;-84
2023/10/29 09:12:18;;;;;;;4.25;2.70;;;9.80;99.90;;;;;;5095761;28;20120;-85
2023/10/29 09:15:18;;;;;;;7.25;2.40;;;9.90;99.90;;;;;;5064711;28;20181;-85
2023/10/29 09:17:44;;;;;;;6.07;3.15;;;9.80;99.90;;;;;;5106846;28;20024;-85
2023/10/29 09:20:12;;;;;;;4.70;3.33;;;9.90;99.90;;;;;;5083394;28;20073;-85
2023/10/29 09:22:37;;;;;;;7.00;2.78;;;9.90;99.90;;;;;;5091308;28;20763;-85
2023/10/29 09:25:04;;;;;;;10.15;3.75;;;9.90;99.90;;;;;;5085611;28;20028;-83
2023/10/29 09:27:30;;;;;;;7.15;3.05;;;9.80;99.90;;;;;;5063457;28;20043;-84
2023/10/29 09:29:55;;;;;;;6.43;3.53;;;9.90;99.90;;;;;;5077086;28;20032;-83
2023/10/29 09:32:23;;;;;;;7.25;4.00;;;9.90;99.90;;;;;;5066319;28;20436;-85
2023/10/29 09:34:50;;;;;;;14.43;5.60;;;10.00;99.90;;;;;;5061201;28;20390;-85
2023/10/29 09:37:16;;;;;;;16.40;7.88;;;10.00;99.90;;;;;;5076271;28;20024;-85
2023/10/29 09:39:43;;;;;;;11.07;5.72;;;10.10;99.90;;;;;;5077156;28;20690;-85
2023/10/29 09:42:11;;;;;;;9.07;4.97;;;10.10;99.90;;;;;;5075051;28;20032;-85
2023/10/29 09:44:40;;;;;;;9.02;5.85;;;10.00;99.90;;;;;;5101899;28;20800;-85
2023/10/29 09:47:17;;;;;;;11.65;5.53;;;10.00;99.90;;;;;;5103050;28;20054;-85
2023/10/29 09:49:43;;;;;;;5.65;4.10;;;10.10;99.90;;;;;;5083158;28;20093;-85
2023/10/29 09:52:09;;;;;;;6.75;3.97;;;9.90;99.90;;;;;;5064870;28;20031;-85
2023/10/29 09:54:40;;;;;;;10.38;4.45;;;9.90;99.90;;;;;;5120832;27;20052;-85
2023/10/29 09:57:33;;;;;;;11.85;5.60;;;9.90;99.90;;;;;;5075830;28;20023;-84
2023/10/29 09:59:59;;;;;;;5.45;3.85;;;9.90;99.90;;;;;;5109104;27;20035;-84
2023/10/29 10:06:59;;;;;;;15.98;7.97;;;10.00;99.90;;;;;;5099965;28;20067;-84
2023/10/29 10:09:25;;;;;;;25.17;11.95;;;10.10;99.90;;;;;;5091934;28;20035;-84
2023/10/29 10:12:04;;;;;;;11.52;6.63;;;10.10;99.90;;;;;;5078779;28;20031;-84
2023/10/29 10:14:30;;;;;;;15.25;8.35;;;10.00;99.90;;;;;;5085134;28;20023;-84
2023/10/29 10:17:12;;;;;;;15.50;7.28;;;10.00;99.90;;;;;;5066715;28;20611;-84
2023/10/29 10:19:38;;;;;;;10.07;5.82;;;10.10;99.90;;;;;;5071279;28;20035;-84
2023/10/29 10:22:07;;;;;;;18.55;8.82;;;10.20;99.90;;;;;;5094586;28;20028;-84
2023/10/29 10:24:43;;;;;;;27.63;14.98;;;10.10;99.90;;;;;;5061021;28;20021;-84
2023/10/29 10:27:09;;;;;;;21.25;11.60;;;10.10;99.90;;;;;;5085597;28;20475;-84
2023/10/29 10:29:35;;;;;;;22.60;13.02;;;10.10;99.90;;;;;;5074792;28;20036;-84
2023/10/29 10:32:02;;;;;;;16.13;9.05;;;10.20;99.90;;;;;;5082227;28;20491;-84
2023/10/29 10:34:51;;;;;;;15.13;10.60;;;10.20;99.90;;;;;;5073490;28;20074;-84
2023/10/29 10:37:17;;;;;;;17.08;9.50;;;10.20;99.90;;;;;;5075049;28;20553;-84
2023/10/29 10:39:42;;;;;;;22.05;10.23;;;10.10;99.90;;;;;;5072749;28;20036;-84
2023/10/29 10:42:08;;;;;;;31.05;13.05;;;10.10;99.90;;;;;;5093445;28;20522;-84
2023/10/29 10:44:36;;;;;;;23.05;13.57;;;10.10;99.90;;;;;;5092978;28;20482;-84
2023/10/29 10:47:03;;;;;;;20.13;12.98;;;10.10;99.90;;;;;;5108782;28;20024;-84
2023/10/29 10:49:31;;;;;;;14.27;9.55;;;10.10;99.90;;;;;;5058873;28;20709;-84
2023/10/29 10:51:59;;;;;;;25.45;14.85;;;10.20;99.90;;;;;;5061627;28;20046;-84
2023/10/29 10:54:25;;;;;;;22.30;12.65;;;10.20;99.90;;;;;;5075123;28;20028;-84
2023/10/29 10:56:53;;;;;;;12.15;8.45;;;10.10;99.90;;;;;;5060740;28;20466;-84
2023/10/29 10:59:20;;;;;;;17.30;9.73;;;10.10;99.90;;;;;;5065550;28;20039;-84
2023/10/29 11:01:46;;;;;;;16.88;11.55;;;10.00;99.90;;;;;;5074935;28;20106;-84
2023/10/29 11:04:12;;;;;;;17.70;10.98;;;10.10;99.90;;;;;;5092144;28;20036;-84
2023/10/29 11:06:39;;;;;;;13.20;10.35;;;10.00;99.90;;;;;;5092821;28;20042;-84
2023/10/29 11:09:12;;;;;;;15.90;8.60;;;10.10;99.90;;;;;;5075747;28;20502;-84
2023/10/29 11:11:55;;;;;;;20.25;12.30;;;10.30;99.90;;;;;;5095033;28;20550;-84
2023/10/29 11:14:24;;;;;;;11.15;6.50;;;10.50;99.90;;;;;;5055978;28;20024;-84
2023/10/29 11:16:55;;;;;;;20.88;10.68;;;10.70;99.90;;;;;;5058902;28;20020;-84
2023/10/29 11:19:37;;;;;;;14.57;8.48;;;10.80;99.90;;;;;;5094340;28;20034;-84
2023/10/29 11:22:17;;;;;;;17.13;9.18;;;11.10;99.90;;;;;;5054953;28;20051;-84
2023/10/29 11:24:43;;;;;;;26.02;11.68;;;11.30;99.90;;;;;;5109595;27;20032;-84
2023/10/29 11:27:34;;;;;;;16.13;9.10;;;11.40;99.90;;;;;;5069118;28;20467;-84
2023/10/29 11:30:17;;;;;;;35.80;16.23;;;11.60;99.90;;;;;;5074809;28;20508;-84
2023/10/29 11:32:45;;;;;;;22.20;10.15;;;11.80;99.90;;;;;;5076808;28;20032;-84
2023/10/29 11:35:57;;;;;;;19.05;7.80;;;11.90;99.90;;;;;;5059548;28;20016;-85
2023/10/29 11:38:33;;;;;;;8.70;4.15;;;11.90;99.90;;;;;;5097091;27;20032;-84
2023/10/29 11:40:59;;;;;;;24.25;7.85;;;11.80;99.90;;;;;;5077956;28;20070;-84
2023/10/29 11:43:25;;;;;;;33.47;12.23;;;11.80;99.90;;;;;;5074132;28;20103;-84
2023/10/29 11:46:01;;;;;;;34.83;15.63;;;11.80;99.90;;;;;;5076925;28;20032;-84
2023/10/29 11:48:31;;;;;;;17.55;9.23;;;11.60;99.90;;;;;;5069231;28;20059;-84
2023/10/29 11:51:08;;;;;;;15.88;7.35;;;11.60;99.90;;;;;;5075250;28;20074;-84
2023/10/29 11:53:35;;;;;;;8.48;5.93;;;11.70;99.90;;;;;;5086762;28;20550;-84
2023/10/29 11:56:09;;;;;;;12.25;5.75;;;11.80;99.90;;;;;;5074655;28;20367;-85
2023/10/29 11:58:35;;;;;;;18.70;9.15;;;12.00;99.90;;;;;;5101292;28;20021;-84
2023/10/29 12:01:01;;;;;;;8.35;4.60;;;12.10;99.90;;;;;;5080323;28;20028;-85
2023/10/29 12:03:29;;;;;;;13.75;7.38;;;12.10;99.90;;;;;;5102042;28;20040;-85
2023/10/29 12:05:56;;;;;;;14.77;5.72;;;12.20;99.90;;;;;;5096562;28;20172;-85
2023/10/29 12:08:30;;;;;;;9.50;4.50;;;12.20;99.90;;;;;;5068079;28;20067;-85
2023/10/29 12:10:58;;;;;;;6.90;3.03;;;12.20;99.90;;;;;;5087926;28;20146;-85
2023/10/29 12:13:24;;;;;;;8.35;5.40;;;12.10;99.90;;;;;;5077721;28;20026;-85
2023/10/29 12:15:57;;;;;;;6.32;3.95;;;12.30;99.90;;;;;;5062423;28;20089;-84
2023/10/29 12:18:24;;;;;;;7.93;4.57;;;12.60;99.90;;;;;;5060773;28;20067;-85
2023/10/29 12:21:01;;;;;;;5.47;3.78;;;12.50;99.90;;;;;;5052991;28;20028;-85
2023/10/29 12:23:27;;;;;;;4.25;3.05;;;12.50;99.90;;;;;;5065903;28;20043;-85
2023/10/29 12:25:53;;;;;;;7.53;3.85;;;12.50;99.90;;;;;;5113595;27;20135;-84
2023/10/29 12:28:19;;;;;;;9.50;5.43;;;12.50;99.90;;;;;;5094935;28;20035;-85
2023/10/29 12:30:47;;;;;;;11.45;4.38;;;12.60;99.90;;;;;;5081684;28;20047;-85
2023/10/29 12:33:26;;;;;;;7.30;3.35;;;12.60;99.90;;;;;;5061844;28;20028;-85
2023/10/29 12:35:53;;;;;;;10.77;3.00;;;12.50;99.90;;;;;;5068414;28;20147;-85
2023/10/29 12:38:20;;;;;;;4.43;2.63;;;12.50;99.90;;;;;;5076777;28;20028;-84
2023/10/29 12:41:01;;;;;;;4.88;3.17;;;12.40;99.90;;;;;;5070040;28;20032;-84
2023/10/29 12:43:40;;;;;;;9.43;3.92;;;12.30;99.90;;;;;;5078089;28;20092;-85
2023/10/29 12:46:45;;;;;;;13.60;3.30;;;12.20;99.90;;;;;;5091321;28;20043;-84
2023/10/29 12:49:12;;;;;;;3.95;2.50;;;12.00;99.90;;;;;;5090822;28;20031;-85
2023/10/29 12:51:41;;;;;;;8.73;2.92;;;12.00;99.90;;;;;;5065429;28;20473;-85
2023/10/29 12:54:19;;;;;;;6.57;2.72;;;12.20;99.90;;;;;;5059363;28;20039;-85
2023/10/29 12:57:11;;;;;;;6.47;2.90;;;12.40;99.90;;;;;;5082323;28;20077;-85